Hlavní strana
METAR-TAF:

METAR-TAF

Letiště :

Öskemen, Kazachstán

zeměpisná šířka: 50-02-10N, zeměpisná délka: 082-29-39E, výška: 286 m

Aktuální stav počasí

Zpráva byla vytvořena před 40 minutami, v 11:30 UTC
Západní vítr 6 kt, proměnlivý mezi západojihozápadním a severozápadním
Teplota 13°C
Vlhkost vzduchu 28%
Tlak 1018 hPa
Viditelnost 10 km a více

METAR: UASK 231130Z 27003MPS 240V310 9999 NSC 13/M05 Q1018 R12/090060 NOSIG RMK QFE738/0984

Čas: 18:10 (12:10 UTC)

Předpověď počasí

Zpráva byla vytvořena před 1 hodinou a 8 minutami, v 11:02 UTC
Předpověď platná od 23 v 12 UTC do 23 v 21 UTC
Západní vítr 6 kt
Viditelnost 10 km a více
Polojasno ve výšce 10000 ft
Dočasný
od 23 v 18 UTC do 23 v 21 UTC
vítr z různých směrů 2 kt
Viditelnost: 3100 m
Skoro jasno ve výšce 400 ft
kouřmo

TAF: UASK 231102Z 2312/2321 27003MPS 9999 SCT100 TEMPO 2318/2321 VRB01MPS 3100 BR FEW004

Stav a předpovědi počasí z více než 4 000 letišť (zprávy METAR a TAF).

Červené a žluté tečky na mapě představují dostupné meteorologické stanice.

Když kurzor umístíte na tečku, zobrazí se název stanice.

Pak kliknutím zobrazíte stav a předpověď počasí.

Chcete-li změnit mapu, kliknutím na zelené tlačítko se znaménkem +mapu přiblížíte, kliknutím na zelené tlačítko se znaménkem – mapu oddálíte a kliknutím na zelené šipky přejdete na sousední mapy.


METAR-TAF: